Time;durP1;ratioP1;P1;durP2;ratioP2;P2;SDS_P1;SDS_P2;PMS_P1;PMS_P2;Temp;Humidity;BMP_temperature;BMP_pressure;BME280_temperature;BME280_humidity;BME280_pressure;Samples;Min_cycle;Max_cycle;Signal;HPM_P1;HPM_P2
2022/04/08 00:00:03;;;;;;;1541.60;999.90;;;;;;;;;;4944980;29;19914;-55
2022/04/08 00:02:28;;;;;;;;;;;;;;;;;;4944996;29;20261;-55
2022/04/08 00:04:53;;;;;;;;;;;;;;;;;;4945270;28;25129;-55
2022/04/08 00:07:18;;;;;;;;;;;;;;;;;;4946065;29;20755;-55
2022/04/08 00:09:43;;;;;;;;;;;;;;;;;;4945701;29;20220;-57
2022/04/08 00:12:09;;;;;;;1516.95;999.90;;;;;;;;;;4945974;29;19911;-55
2022/04/08 00:14:34;;;;;;;;;;;;;;;;;;4928526;29;20397;-55
2022/04/08 00:17:01;;;;;;;;;;;;;;;;;;4929510;29;20044;-56
2022/04/08 00:19:27;;;;;;;;;;;;;;;;;;4946070;29;20247;-55
2022/04/08 00:21:52;;;;;;;;;;;;;;;;;;4940542;28;20054;-56
2022/04/08 00:24:18;;;;;;;;;;;;;;;;;;4951297;28;20516;-56
2022/04/08 00:26:44;;;;;;;;;;;;;;;;;;4949722;28;20795;-55
2022/04/08 00:29:09;;;;;;;;;;;;;;;;;;4945719;29;25120;-55
2022/04/08 00:31:34;;;;;;;;;;;;;;;;;;4944780;28;19915;-54
2022/04/08 00:33:59;;;;;;;;;;;;;;;;;;4944261;29;25125;-56
2022/04/08 00:36:25;;;;;;;;;;;;;;;;;;4932775;29;20059;-56
2022/04/08 00:38:50;;;;;;;1547.05;999.90;;;;;;;;;;4941801;29;20256;-54
2022/04/08 00:41:15;;;;;;;;;;;;;;;;;;4945297;29;20349;-54
2022/04/08 00:43:40;;;;;;;;;;;;;;;;;;4944786;28;19925;-54
2022/04/08 00:46:05;;;;;;;;;;;;;;;;;;4945044;29;24155;-55
2022/04/08 00:48:30;;;;;;;;;;;;;;;;;;4944386;29;20508;-54
2022/04/08 00:50:55;;;;;;;;;;;;;;;;;;4945096;29;20030;-54
2022/04/08 00:53:21;;;;;;;;;;;;;;;;;;4944872;29;19989;-50
2022/04/08 00:55:46;;;;;;;;;;;;;;;;;;4944488;29;19921;-54
2022/04/08 00:58:11;;;;;;;;;;;;;;;;;;4944980;29;20014;-54
2022/04/08 01:00:36;;;;;;;;;;;;;;;;;;4944903;29;19917;-56
2022/04/08 01:03:01;;;;;;;;;;;;;;;;;;4945710;28;20074;-55
2022/04/08 01:05:26;;;;;;;;;;;;;;;;;;4959061;28;20037;-51
2022/04/08 01:07:51;;;;;;;;;;;;;;;;;;4945352;29;20098;-55
2022/04/08 01:10:17;;;;;;;;;;;;;;;;;;4944302;29;25132;-54
2022/04/08 01:12:42;;;;;;;;;;;;;;;;;;4944852;29;20037;-54
2022/04/08 01:15:07;;;;;;;;;;;;;;;;;;4941213;29;19953;-55
2022/04/08 01:17:32;;;;;;;;;;;;;;;;;;4939919;29;19910;-53
2022/04/08 01:19:57;;;;;;;828.97;576.45;;;;;;;;;;4944789;29;24062;-55
2022/04/08 01:22:23;;;;;;;444.37;313.40;;;;;;;;;;4945457;29;20098;-55
2022/04/08 01:24:49;;;;;;;696.70;521.80;;;;;;;;;;4927544;29;20349;-54
2022/04/08 01:27:18;;;;;;;887.35;622.83;;;;;;;;;;4945585;29;20042;-53
2022/04/08 01:29:44;;;;;;;1280.60;998.22;;;;;;;;;;4945365;29;20027;-54
2022/04/08 01:32:09;;;;;;;1387.55;999.90;;;;;;;;;;4944716;29;20477;-53
2022/04/08 01:34:34;;;;;;;1585.20;999.90;;;;;;;;;;4945014;29;20061;-55
2022/04/08 01:36:59;;;;;;;1549.85;999.90;;;;;;;;;;4945065;29;20293;-53
2022/04/08 01:39:25;;;;;;;1559.80;999.90;;;;;;;;;;4945310;29;20245;-55
2022/04/08 01:41:50;;;;;;;1573.38;999.90;;;;;;;;;;4927824;29;20402;-51
2022/04/08 01:44:15;;;;;;;1567.30;999.90;;;;;;;;;;4958288;28;19914;-55
2022/04/08 01:46:40;;;;;;;1575.10;999.90;;;;;;;;;;4953379;28;19922;-52
2022/04/08 01:49:06;;;;;;;1559.00;999.90;;;;;;;;;;4948339;29;20243;-55
2022/04/08 01:51:31;;;;;;;1563.90;999.90;;;;;;;;;;4948845;29;20031;-52
2022/04/08 01:53:56;;;;;;;1563.40;999.90;;;;;;;;;;4948290;29;20113;-51
2022/04/08 01:56:21;;;;;;;1556.50;999.90;;;;;;;;;;4936600;29;20425;-56
2022/04/08 01:58:47;;;;;;;1558.65;999.90;;;;;;;;;;4944668;29;20192;-55
2022/04/08 02:01:12;;;;;;;1544.50;999.90;;;;;;;;;;4948012;29;19914;-55
2022/04/08 02:03:37;;;;;;;1552.35;999.90;;;;;;;;;;4947559;28;20314;-56
2022/04/08 02:06:02;;;;;;;1548.10;999.90;;;;;;;;;;4948103;29;20058;-52
2022/04/08 02:08:28;;;;;;;1551.77;999.90;;;;;;;;;;4948300;29;20005;-54
2022/04/08 02:10:53;;;;;;;1542.10;999.90;;;;;;;;;;4948065;29;20054;-56
2022/04/08 02:13:19;;;;;;;1536.10;999.90;;;;;;;;;;4948189;29;20240;-56
2022/04/08 02:15:45;;;;;;;1543.00;999.90;;;;;;;;;;4948361;29;20073;-53
2022/04/08 02:18:10;;;;;;;1540.55;999.90;;;;;;;;;;4947543;29;20240;-53
2022/04/08 02:20:35;;;;;;;1566.50;999.90;;;;;;;;;;4947440;29;20065;-56
2022/04/08 02:23:01;;;;;;;1554.97;999.90;;;;;;;;;;4930083;28;19922;-56
2022/04/08 02:25:26;;;;;;;1558.32;999.90;;;;;;;;;;4946686;29;20396;-53
2022/04/08 02:27:52;;;;;;;1553.00;999.90;;;;;;;;;;4947436;29;20041;-54
2022/04/08 02:30:17;;;;;;;1554.90;999.90;;;;;;;;;;4930368;29;19911;-55
2022/04/08 02:32:42;;;;;;;1545.70;999.90;;;;;;;;;;4929638;29;25050;-55
2022/04/08 02:35:08;;;;;;;1545.30;999.90;;;;;;;;;;4945057;29;20322;-55
2022/04/08 02:37:33;;;;;;;1552.28;999.90;;;;;;;;;;4933650;29;19916;-55
2022/04/08 02:39:58;;;;;;;1560.97;999.90;;;;;;;;;;4947209;29;20405;-54
2022/04/08 02:42:24;;;;;;;1561.68;999.90;;;;;;;;;;4947068;29;20138;-55
2022/04/08 02:44:49;;;;;;;1564.70;999.90;;;;;;;;;;4947163;28;20031;-54
2022/04/08 02:47:14;;;;;;;1566.22;999.90;;;;;;;;;;4946993;29;20047;-55
2022/04/08 02:49:39;;;;;;;;;;;;;;;;;;4946971;29;19942;-54
2022/04/08 02:52:05;;;;;;;1567.37;999.90;;;;;;;;;;4947173;29;25053;-54
2022/04/08 02:54:30;;;;;;;1564.65;999.90;;;;;;;;;;4946710;28;20670;-56
2022/04/08 02:56:55;;;;;;;1561.55;999.90;;;;;;;;;;4929254;29;20105;-55
2022/04/08 02:59:21;;;;;;;1558.90;999.90;;;;;;;;;;4947155;29;20051;-52
2022/04/08 03:01:46;;;;;;;1579.25;999.90;;;;;;;;;;4946492;29;20110;-54
2022/04/08 03:04:12;;;;;;;1575.03;999.90;;;;;;;;;;4957093;28;20517;-54
2022/04/08 03:06:37;;;;;;;1585.87;999.90;;;;;;;;;;4952761;28;20098;-55
2022/04/08 03:09:02;;;;;;;1565.80;999.90;;;;;;;;;;4946745;29;19965;-55
2022/04/08 03:11:28;;;;;;;1575.80;999.90;;;;;;;;;;4946623;29;20258;-55
2022/04/08 03:13:53;;;;;;;1571.13;999.90;;;;;;;;;;4946034;29;20487;-55
2022/04/08 03:16:18;;;;;;;1576.60;999.90;;;;;;;;;;4937418;29;20232;-55
2022/04/08 03:18:46;;;;;;;1570.60;999.90;;;;;;;;;;4946523;29;20309;-56
2022/04/08 03:21:11;;;;;;;1575.70;999.90;;;;;;;;;;4945664;29;24143;-55
2022/04/08 03:23:39;;;;;;;1571.65;999.90;;;;;;;;;;4945927;28;19922;-55
2022/04/08 03:26:04;;;;;;;1575.00;999.90;;;;;;;;;;4946643;29;20121;-55
2022/04/08 03:28:31;;;;;;;1570.90;999.90;;;;;;;;;;4946658;29;20490;-55
2022/04/08 03:30:57;;;;;;;1577.40;999.90;;;;;;;;;;4946229;29;20036;-55
2022/04/08 03:33:22;;;;;;;1568.80;999.90;;;;;;;;;;4928347;29;20244;-53
2022/04/08 03:35:47;;;;;;;1566.70;999.90;;;;;;;;;;4945936;29;20472;-53
2022/04/08 03:38:12;;;;;;;1565.20;999.90;;;;;;;;;;4945946;29;20077;-52
2022/04/08 03:40:38;;;;;;;1570.00;999.90;;;;;;;;;;4946191;29;24051;-54
2022/04/08 03:43:04;;;;;;;1561.25;999.90;;;;;;;;;;4947400;28;19922;-54
2022/04/08 03:45:29;;;;;;;1578.10;999.90;;;;;;;;;;4960336;28;20040;-54
2022/04/08 03:47:54;;;;;;;1565.85;999.90;;;;;;;;;;4945971;29;20119;-52
2022/04/08 03:50:20;;;;;;;1569.25;999.90;;;;;;;;;;4945875;29;20052;-55
2022/04/08 03:52:45;;;;;;;1569.60;999.90;;;;;;;;;;4946071;29;20083;-52
2022/04/08 03:55:10;;;;;;;1570.00;999.90;;;;;;;;;;4943584;29;20063;-54
2022/04/08 03:57:35;;;;;;;1561.90;999.90;;;;;;;;;;4932203;29;20559;-54
2022/04/08 04:00:01;;;;;;;1566.10;999.90;;;;;;;;;;4945955;29;20025;-54
2022/04/08 04:02:26;;;;;;;1557.00;999.90;;;;;;;;;;4945112;29;19918;-55
2022/04/08 04:04:51;;;;;;;1559.20;999.90;;;;;;;;;;4945324;28;19914;-55
2022/04/08 04:07:17;;;;;;;1557.80;999.90;;;;;;;;;;4944800;28;20001;-55
2022/04/08 04:09:42;;;;;;;1575.20;999.90;;;;;;;;;;4944942;29;24056;-55
2022/04/08 04:12:08;;;;;;;1565.10;999.90;;;;;;;;;;4945757;29;20098;-54
2022/04/08 04:14:33;;;;;;;;;;;;;;;;;;4945755;29;19914;-54
2022/04/08 04:16:58;;;;;;;;;;;;;;;;;;4943963;28;19954;-54
2022/04/08 04:19:23;;;;;;;1574.80;999.90;;;;;;;;;;4944842;29;19921;-55
2022/04/08 04:21:50;;;;;;;;;;;;;;;;;;4944546;28;20527;-54
2022/04/08 04:24:15;;;;;;;1564.20;999.90;;;;;;;;;;4944247;28;20455;-54
2022/04/08 04:26:40;;;;;;;1567.60;999.90;;;;;;;;;;4927464;28;19983;-51
2022/04/08 04:29:05;;;;;;;1569.70;999.90;;;;;;;;;;4927300;28;25126;-54
2022/04/08 04:31:31;;;;;;;;;;;;;;;;;;4945770;28;20437;-54
2022/04/08 04:33:56;;;;;;;1559.50;999.90;;;;;;;;;;4945892;28;20035;-55
2022/04/08 04:36:21;;;;;;;1570.30;999.90;;;;;;;;;;4928166;28;20077;-53
2022/04/08 04:38:46;;;;;;;;;;;;;;;;;;4944534;28;20217;-55
2022/04/08 04:41:11;;;;;;;1563.60;999.90;;;;;;;;;;4944076;28;20230;-56
2022/04/08 04:43:37;;;;;;;1556.10;999.90;;;;;;;;;;4944718;28;20988;-53
2022/04/08 04:46:03;;;;;;;;;;;;;;;;;;4944112;28;25091;-51
2022/04/08 04:48:29;;;;;;;1580.65;999.90;;;;;;;;;;4944277;28;20059;-52
2022/04/08 04:50:56;;;;;;;1582.38;999.90;;;;;;;;;;4944935;28;19910;-55
2022/04/08 04:53:21;;;;;;;1592.50;999.90;;;;;;;;;;4944756;28;19914;-56
2022/04/08 04:55:46;;;;;;;1598.75;999.90;;;;;;;;;;4944071;28;20483;-52
2022/04/08 04:58:11;;;;;;;1598.90;999.90;;;;;;;;;;4944892;28;19922;-55
2022/04/08 05:00:37;;;;;;;1611.70;999.90;;;;;;;;;;4944717;28;20225;-55
2022/04/08 05:03:03;;;;;;;1621.40;999.90;;;;;;;;;;4945818;28;20130;-53
2022/04/08 05:05:28;;;;;;;1617.55;999.90;;;;;;;;;;4943951;28;20303;-52
2022/04/08 05:07:54;;;;;;;1627.63;999.90;;;;;;;;;;4944167;29;20085;-54
2022/04/08 05:10:19;;;;;;;1614.03;999.90;;;;;;;;;;4944387;29;20329;-52
2022/04/08 05:12:44;;;;;;;1591.28;999.90;;;;;;;;;;4944447;29;20027;-50
2022/04/08 05:15:11;;;;;;;1585.85;999.90;;;;;;;;;;4942614;29;20491;-55
2022/04/08 05:17:37;;;;;;;1579.55;999.90;;;;;;;;;;4943776;28;20027;-51
2022/04/08 05:20:05;;;;;;;1588.05;999.90;;;;;;;;;;4947438;28;19933;-55
2022/04/08 05:22:31;;;;;;;1568.05;999.90;;;;;;;;;;4947682;28;20043;-54
2022/04/08 05:24:58;;;;;;;1581.25;999.90;;;;;;;;;;4946609;28;20077;-58
2022/04/08 05:27:23;;;;;;;1579.15;999.90;;;;;;;;;;4947733;28;20044;-58
2022/04/08 05:29:48;;;;;;;1580.30;999.90;;;;;;;;;;4947941;28;20045;-55
2022/04/08 05:32:13;;;;;;;1583.75;999.90;;;;;;;;;;4947534;28;20067;-58
2022/04/08 05:34:39;;;;;;;1579.75;999.90;;;;;;;;;;4947808;28;20026;-57
2022/04/08 05:37:04;;;;;;;1570.50;999.90;;;;;;;;;;4947894;28;20259;-55
2022/04/08 05:39:29;;;;;;;1581.30;999.90;;;;;;;;;;4947637;28;20736;-56
2022/04/08 05:41:54;;;;;;;1601.15;999.90;;;;;;;;;;4948522;28;20414;-58
2022/04/08 05:44:20;;;;;;;1595.55;999.90;;;;;;;;;;4959674;28;20026;-56
2022/04/08 05:46:45;;;;;;;1587.85;999.90;;;;;;;;;;4952813;28;20427;-58
2022/04/08 05:49:10;;;;;;;1586.18;999.90;;;;;;;;;;4948119;28;20078;-52
2022/04/08 05:51:35;;;;;;;1575.82;999.90;;;;;;;;;;4947756;29;20098;-55
2022/04/08 05:54:01;;;;;;;1574.80;999.90;;;;;;;;;;4947174;29;20031;-53
2022/04/08 05:56:26;;;;;;;1573.67;999.90;;;;;;;;;;4948422;29;20263;-57
2022/04/08 05:58:51;;;;;;;1577.47;999.90;;;;;;;;;;4949004;29;20307;-56
2022/04/08 06:01:16;;;;;;;1546.10;999.90;;;;;;;;;;4947361;29;20019;-53
2022/04/08 06:03:42;;;;;;;1562.18;999.90;;;;;;;;;;4947698;28;20023;-58
2022/04/08 06:06:07;;;;;;;1560.30;999.90;;;;;;;;;;4948257;29;20435;-56
2022/04/08 06:08:33;;;;;;;1569.30;999.90;;;;;;;;;;4948021;29;20024;-58
2022/04/08 06:10:58;;;;;;;1572.65;999.90;;;;;;;;;;4948330;29;20796;-60
2022/04/08 06:13:26;;;;;;;1566.70;999.90;;;;;;;;;;4947699;29;20038;-56
2022/04/08 06:15:52;;;;;;;1568.10;999.90;;;;;;;;;;4948046;29;20735;-58
2022/04/08 06:18:18;;;;;;;1575.95;999.90;;;;;;;;;;4948259;29;20059;-59
2022/04/08 06:20:43;;;;;;;1577.20;999.90;;;;;;;;;;4947973;29;20120;-58
2022/04/08 06:23:09;;;;;;;1576.35;999.90;;;;;;;;;;4946651;28;20051;-59
2022/04/08 06:25:34;;;;;;;1568.03;999.90;;;;;;;;;;4947355;28;20502;-59
2022/04/08 06:28:02;;;;;;;1569.80;999.90;;;;;;;;;;4947576;29;20932;-56
2022/04/08 06:30:28;;;;;;;1594.35;999.90;;;;;;;;;;4923726;28;20288;-56
2022/04/08 06:32:53;;;;;;;1586.20;999.90;;;;;;;;;;4947104;28;19911;-56
2022/04/08 06:35:18;;;;;;;1586.25;999.90;;;;;;;;;;4947266;28;20110;-57
2022/04/08 06:37:44;;;;;;;1590.10;999.90;;;;;;;;;;4948032;29;20042;-56
2022/04/08 06:40:09;;;;;;;1593.63;999.90;;;;;;;;;;4947304;29;20012;-57
2022/04/08 06:42:35;;;;;;;1593.15;999.90;;;;;;;;;;4947757;29;20271;-56
2022/04/08 06:45:00;;;;;;;1596.80;999.90;;;;;;;;;;4963299;28;20553;-58
2022/04/08 06:47:26;;;;;;;1583.22;999.90;;;;;;;;;;4947655;29;20023;-56
2022/04/08 06:49:51;;;;;;;1584.00;999.90;;;;;;;;;;4947471;28;20704;-56
2022/04/08 06:52:16;;;;;;;1587.67;999.90;;;;;;;;;;4947639;29;19977;-56
2022/04/08 06:54:41;;;;;;;1590.30;999.90;;;;;;;;;;4947463;29;20263;-57
2022/04/08 06:57:07;;;;;;;1588.93;999.90;;;;;;;;;;4945838;29;20627;-55
2022/04/08 06:59:32;;;;;;;1589.00;999.90;;;;;;;;;;4947628;29;20394;-57
2022/04/08 07:01:57;;;;;;;1596.00;999.90;;;;;;;;;;4947513;29;20097;-57
2022/04/08 07:04:23;;;;;;;1596.13;999.90;;;;;;;;;;4958356;28;20038;-52
2022/04/08 07:06:48;;;;;;;1600.17;999.90;;;;;;;;;;4952315;28;20310;-55
2022/04/08 07:09:13;;;;;;;1598.50;999.90;;;;;;;;;;4947155;29;20278;-57
2022/04/08 07:11:38;;;;;;;1600.00;999.90;;;;;;;;;;4947253;28;20817;-55
2022/04/08 07:14:04;;;;;;;1605.03;999.90;;;;;;;;;;4947097;29;21018;-56
2022/04/08 07:16:29;;;;;;;1597.38;999.90;;;;;;;;;;4945645;29;20039;-56
2022/04/08 07:18:54;;;;;;;1593.47;999.90;;;;;;;;;;4946092;29;20022;-57
2022/04/08 07:21:21;;;;;;;1592.65;999.90;;;;;;;;;;4946299;28;19921;-61
2022/04/08 07:23:47;;;;;;;1591.20;999.90;;;;;;;;;;4953015;28;20294;-54
2022/04/08 07:26:12;;;;;;;1593.97;999.90;;;;;;;;;;4955638;28;20027;-59
2022/04/08 07:28:37;;;;;;;1596.80;999.90;;;;;;;;;;4946952;29;20050;-58
2022/04/08 07:31:03;;;;;;;1591.97;999.90;;;;;;;;;;4945460;29;19926;-57
2022/04/08 07:33:28;;;;;;;1595.15;999.90;;;;;;;;;;4946631;29;20086;-58
2022/04/08 07:35:53;;;;;;;1606.30;999.90;;;;;;;;;;4946792;29;20038;-53
2022/04/08 07:38:18;;;;;;;1601.68;999.90;;;;;;;;;;4938850;29;20224;-53
2022/04/08 07:40:44;;;;;;;1607.90;999.90;;;;;;;;;;4946629;28;20683;-55
2022/04/08 07:43:09;;;;;;;1607.38;999.90;;;;;;;;;;4945062;28;20865;-57
2022/04/08 07:45:34;;;;;;;1604.55;999.90;;;;;;;;;;4947093;29;20027;-58
2022/04/08 07:47:59;;;;;;;1603.97;999.90;;;;;;;;;;4946487;29;20155;-58
2022/04/08 07:50:25;;;;;;;1610.82;999.90;;;;;;;;;;4946489;29;20023;-57
2022/04/08 07:52:51;;;;;;;1609.45;999.90;;;;;;;;;;4947016;29;20487;-56
2022/04/08 07:55:20;;;;;;;1605.07;999.90;;;;;;;;;;4946037;29;20419;-57
2022/04/08 07:57:45;;;;;;;1602.30;999.90;;;;;;;;;;4945579;29;20035;-55
2022/04/08 08:00:11;;;;;;;1609.28;999.90;;;;;;;;;;4946270;28;20019;-55
2022/04/08 08:02:37;;;;;;;1603.43;999.90;;;;;;;;;;4943675;28;20082;-55
2022/04/08 08:05:02;;;;;;;1597.00;999.90;;;;;;;;;;4945742;28;20031;-56
2022/04/08 08:07:27;;;;;;;1607.88;999.90;;;;;;;;;;4946346;29;20030;-57
2022/04/08 08:09:53;;;;;;;1601.17;999.90;;;;;;;;;;4946465;29;20015;-56
2022/04/08 08:12:19;;;;;;;1603.97;999.90;;;;;;;;;;4946547;29;20771;-51
2022/04/08 08:14:44;;;;;;;1597.30;999.90;;;;;;;;;;4945381;29;20015;-55
2022/04/08 08:17:09;;;;;;;1599.17;999.90;;;;;;;;;;4945076;29;20357;-53
2022/04/08 08:19:34;;;;;;;1602.67;999.90;;;;;;;;;;4945875;29;20353;-57
2022/04/08 08:22:00;;;;;;;1600.95;999.90;;;;;;;;;;4945535;29;20310;-55
2022/04/08 08:24:25;;;;;;;1599.40;999.90;;;;;;;;;;4944283;29;20133;-57
2022/04/08 08:26:50;;;;;;;1602.63;999.90;;;;;;;;;;4946352;29;20031;-56
2022/04/08 08:29:16;;;;;;;1593.13;999.90;;;;;;;;;;4946218;29;20511;-57
2022/04/08 08:31:41;;;;;;;1597.50;999.90;;;;;;;;;;4945842;29;20019;-57
2022/04/08 08:34:07;;;;;;;1597.28;999.90;;;;;;;;;;4945920;29;20341;-57
2022/04/08 08:36:32;;;;;;;1593.40;999.90;;;;;;;;;;4946227;29;20022;-56
2022/04/08 08:38:57;;;;;;;1593.90;999.90;;;;;;;;;;4928978;29;20042;-55
2022/04/08 08:41:22;;;;;;;1591.60;999.90;;;;;;;;;;4928362;28;20554;-57
2022/04/08 08:43:48;;;;;;;1590.35;999.90;;;;;;;;;;4945068;28;20710;-57
2022/04/08 08:46:15;;;;;;;1587.55;999.90;;;;;;;;;;4943887;28;20054;-54
2022/04/08 08:48:43;;;;;;;1594.13;999.90;;;;;;;;;;4945322;28;20035;-56
2022/04/08 08:51:09;;;;;;;1592.60;999.90;;;;;;;;;;4945316;28;20023;-56
2022/04/08 08:53:34;;;;;;;1594.60;999.90;;;;;;;;;;4946514;28;20023;-54
2022/04/08 08:56:00;;;;;;;1599.25;999.90;;;;;;;;;;4948553;28;20278;-54
2022/04/08 08:58:25;;;;;;;1599.38;999.90;;;;;;;;;;4948049;28;20402;-54
2022/04/08 09:00:50;;;;;;;1598.25;999.90;;;;;;;;;;4948693;29;20027;-57
2022/04/08 09:03:15;;;;;;;1599.35;999.90;;;;;;;;;;4947999;28;20743;-57
2022/04/08 09:05:41;;;;;;;1595.63;999.90;;;;;;;;;;4948531;28;20027;-55
2022/04/08 09:08:08;;;;;;;1593.07;999.90;;;;;;;;;;4948997;29;20314;-57
2022/04/08 09:10:54;;;;;;;1585.35;999.90;;;;;;;;;;4949461;29;20128;-55
2022/04/08 09:13:20;;;;;;;1585.93;999.90;;;;;;;;;;4949653;29;20066;-58
2022/04/08 09:15:51;;;;;;;1561.10;999.90;;;;;;;;;;4946889;29;20086;-56
2022/04/08 09:18:17;;;;;;;1588.30;999.90;;;;;;;;;;4948336;29;20514;-55
2022/04/08 09:20:43;;;;;;;1577.97;999.90;;;;;;;;;;4949202;29;20027;-56
2022/04/08 09:23:09;;;;;;;1589.95;999.90;;;;;;;;;;4947213;28;20524;-54
2022/04/08 09:25:34;;;;;;;1586.85;999.90;;;;;;;;;;4948312;29;20026;-56
2022/04/08 09:28:04;;;;;;;1586.20;999.90;;;;;;;;;;4948471;28;20039;-58
2022/04/08 09:30:30;;;;;;;1589.38;999.90;;;;;;;;;;4949389;29;20446;-57
2022/04/08 09:32:55;;;;;;;1584.03;999.90;;;;;;;;;;4948677;29;19910;-57
2022/04/08 09:35:21;;;;;;;1593.13;999.90;;;;;;;;;;4928745;29;20690;-57
2022/04/08 09:38:01;;;;;;;1589.70;999.90;;;;;;;;;;4935012;29;20056;-58
2022/04/08 09:40:33;;;;;;;1572.65;999.90;;;;;;;;;;4948006;29;20031;-56
2022/04/08 09:42:59;;;;;;;1596.60;999.90;;;;;;;;;;4948640;29;20047;-58
2022/04/08 09:45:30;;;;;;;1619.93;999.90;;;;;;;;;;4964055;28;20092;-55
2022/04/08 09:47:55;;;;;;;1564.78;999.90;;;;;;;;;;4948131;28;20027;-56
2022/04/08 09:50:20;;;;;;;1572.03;999.90;;;;;;;;;;4947002;28;20295;-56
2022/04/08 09:52:46;;;;;;;1545.57;999.90;;;;;;;;;;4948209;28;20244;-56
2022/04/08 09:55:12;;;;;;;1550.60;999.90;;;;;;;;;;4945906;28;20458;-57
2022/04/08 09:57:38;;;;;;;1557.00;999.90;;;;;;;;;;4947200;28;20437;-57
2022/04/08 10:00:03;;;;;;;1573.50;999.90;;;;;;;;;;4947906;29;20358;-56
2022/04/08 10:02:28;;;;;;;1561.32;999.90;;;;;;;;;;4944890;28;20122;-56
2022/04/08 10:04:57;;;;;;;1567.17;999.90;;;;;;;;;;4930459;29;19910;-57
2022/04/08 10:07:22;;;;;;;1572.47;999.90;;;;;;;;;;4945379;28;20055;-56
2022/04/08 10:09:58;;;;;;;1583.93;999.90;;;;;;;;;;4929619;28;19984;-56
2022/04/08 10:12:32;;;;;;;1566.95;999.90;;;;;;;;;;4947564;28;20031;-56
2022/04/08 10:15:07;;;;;;;1578.43;999.90;;;;;;;;;;4947508;28;20762;-58
2022/04/08 10:17:32;;;;;;;1571.60;999.90;;;;;;;;;;4946864;28;20225;-57
2022/04/08 10:20:15;;;;;;;1596.30;999.90;;;;;;;;;;4947347;28;20392;-61
2022/04/08 10:22:41;;;;;;;1588.68;999.90;;;;;;;;;;4947208;28;19923;-54
2022/04/08 10:25:12;;;;;;;1614.33;999.90;;;;;;;;;;4930331;28;20059;-55
2022/04/08 10:27:38;;;;;;;1613.83;999.90;;;;;;;;;;4947308;28;20232;-57
2022/04/08 10:30:20;;;;;;;1598.53;999.90;;;;;;;;;;4930144;28;20101;-56
2022/04/08 10:32:47;;;;;;;1604.43;999.90;;;;;;;;;;4944170;28;20023;-53
2022/04/08 10:35:18;;;;;;;1597.70;999.90;;;;;;;;;;4946623;28;20224;-57
2022/04/08 10:38:00;;;;;;;1591.80;999.90;;;;;;;;;;4947244;28;20038;-55
2022/04/08 10:40:25;;;;;;;;;;;;;;;;;;4945885;28;20050;-56
2022/04/08 10:42:57;;;;;;;1573.70;999.90;;;;;;;;;;4947092;28;20059;-54
2022/04/08 10:45:22;;;;;;;1565.40;999.90;;;;;;;;;;4946669;28;20037;-58
2022/04/08 10:47:48;;;;;;;1569.50;999.90;;;;;;;;;;4946862;28;20640;-57
2022/04/08 10:50:22;;;;;;;1563.03;999.90;;;;;;;;;;4946966;28;20061;-57
2022/04/08 10:52:48;;;;;;;1588.20;999.90;;;;;;;;;;4946978;28;20027;-57
2022/04/08 10:55:13;;;;;;;1624.45;999.90;;;;;;;;;;4946139;28;20106;-57
2022/04/08 10:57:45;;;;;;;1619.07;999.90;;;;;;;;;;4944168;28;24096;-57
2022/04/08 11:00:11;;;;;;;1619.80;999.90;;;;;;;;;;4947083;28;20049;-56
2022/04/08 11:02:37;;;;;;;1623.40;999.90;;;;;;;;;;4946690;28;20256;-57
2022/04/08 11:05:02;;;;;;;1600.90;999.90;;;;;;;;;;4938261;29;19918;-56
2022/04/08 11:07:29;;;;;;;1615.25;999.90;;;;;;;;;;4947253;29;20050;-56
2022/04/08 11:09:55;;;;;;;1597.68;999.90;;;;;;;;;;4946173;29;20210;-58
2022/04/08 11:12:20;;;;;;;1597.60;999.90;;;;;;;;;;4947875;29;20505;-54
2022/04/08 11:14:52;;;;;;;1589.10;999.90;;;;;;;;;;4945774;29;20034;-55
2022/04/08 11:17:19;;;;;;;1592.80;999.90;;;;;;;;;;4941710;29;20278;-56
2022/04/08 11:19:45;;;;;;;1597.80;999.90;;;;;;;;;;4944834;29;20023;-53
2022/04/08 11:22:10;;;;;;;1583.30;999.90;;;;;;;;;;4945562;29;20640;-53
2022/04/08 11:24:38;;;;;;;1577.00;999.90;;;;;;;;;;4946297;29;20283;-56
2022/04/08 11:27:04;;;;;;;1586.80;999.90;;;;;;;;;;4946583;28;20042;-57
2022/04/08 11:29:29;;;;;;;1582.00;999.90;;;;;;;;;;4946921;29;20016;-55
2022/04/08 11:32:22;;;;;;;1576.10;999.90;;;;;;;;;;4945706;28;20459;-51
2022/04/08 11:34:47;;;;;;;1587.18;999.90;;;;;;;;;;4938934;29;20241;-57
2022/04/08 11:37:12;;;;;;;1575.30;999.90;;;;;;;;;;4945545;29;20031;-54
2022/04/08 11:39:40;;;;;;;1588.15;999.90;;;;;;;;;;4929261;29;20624;-56
2022/04/08 11:42:05;;;;;;;1580.10;999.90;;;;;;;;;;4946636;29;20039;-56
2022/04/08 11:44:30;;;;;;;1580.60;999.90;;;;;;;;;;4957420;28;20580;-53
2022/04/08 11:47:06;;;;;;;1584.35;999.90;;;;;;;;;;4934105;29;20595;-58
2022/04/08 11:49:32;;;;;;;1578.85;999.90;;;;;;;;;;4946283;29;20250;-52
2022/04/08 11:52:03;;;;;;;1579.13;999.90;;;;;;;;;;4946495;29;20045;-55
2022/04/08 11:54:33;;;;;;;1589.03;999.90;;;;;;;;;;4946246;29;20010;-53
2022/04/08 11:56:59;;;;;;;1581.40;999.90;;;;;;;;;;4932171;29;20039;-54
2022/04/08 11:59:24;;;;;;;1591.75;999.90;;;;;;;;;;4945943;29;20146;-55
2022/04/08 12:01:49;;;;;;;1593.83;999.90;;;;;;;;;;4928694;29;20044;-53
2022/04/08 12:04:15;;;;;;;1586.77;999.90;;;;;;;;;;4946289;28;20035;-53
2022/04/08 12:06:41;;;;;;;1582.55;999.90;;;;;;;;;;4943575;28;20334;-55
2022/04/08 12:09:07;;;;;;;1590.80;999.90;;;;;;;;;;4944099;28;20086;-55
2022/04/08 12:11:35;;;;;;;1597.15;999.90;;;;;;;;;;4944743;29;20033;-56
2022/04/08 12:14:01;;;;;;;1596.55;999.90;;;;;;;;;;4945230;29;21136;-57
2022/04/08 12:16:28;;;;;;;1594.78;999.90;;;;;;;;;;4918496;29;20057;-57
2022/04/08 12:18:53;;;;;;;1597.55;999.90;;;;;;;;;;4943282;29;20073;-57
2022/04/08 12:21:27;;;;;;;1595.87;999.90;;;;;;;;;;4927978;29;20133;-57
2022/04/08 12:23:55;;;;;;;1596.50;999.90;;;;;;;;;;4926406;29;20138;-57
2022/04/08 12:26:24;;;;;;;1596.65;999.90;;;;;;;;;;4944236;29;20031;-54
2022/04/08 12:28:49;;;;;;;1588.75;999.90;;;;;;;;;;4944041;28;19910;-55
2022/04/08 12:31:17;;;;;;;1588.45;999.90;;;;;;;;;;4944664;29;20054;-55
2022/04/08 12:33:42;;;;;;;1590.67;999.90;;;;;;;;;;4944155;29;20655;-55
2022/04/08 12:36:10;;;;;;;1593.15;999.90;;;;;;;;;;4944326;29;20099;-56
2022/04/08 12:38:36;;;;;;;1589.05;999.90;;;;;;;;;;4944816;29;20109;-57
2022/04/08 12:41:01;;;;;;;1593.93;999.90;;;;;;;;;;4944225;29;19910;-57
2022/04/08 12:43:27;;;;;;;1597.68;999.90;;;;;;;;;;4944021;28;20311;-56
2022/04/08 12:45:52;;;;;;;1591.85;999.90;;;;;;;;;;4945134;28;20034;-55
2022/04/08 12:48:17;;;;;;;1598.43;999.90;;;;;;;;;;4944090;28;25055;-56
2022/04/08 12:50:42;;;;;;;1587.75;999.90;;;;;;;;;;4944358;28;20263;-57
2022/04/08 12:53:08;;;;;;;1593.70;999.90;;;;;;;;;;4944699;28;20490;-55
2022/04/08 12:55:33;;;;;;;1593.10;999.90;;;;;;;;;;4943673;28;20263;-56
2022/04/08 12:57:58;;;;;;;1599.50;999.90;;;;;;;;;;4945858;29;20050;-57
2022/04/08 13:00:23;;;;;;;1631.10;999.90;;;;;;;;;;4945359;29;20307;-56
2022/04/08 13:02:49;;;;;;;1604.97;999.90;;;;;;;;;;4945171;28;20083;-55
2022/04/08 13:05:14;;;;;;;1607.90;999.90;;;;;;;;;;4944889;28;20024;-57
2022/04/08 13:07:39;;;;;;;1604.32;999.90;;;;;;;;;;4945013;28;20030;-57
2022/04/08 13:10:05;;;;;;;1609.50;999.90;;;;;;;;;;4945389;29;20027;-56
2022/04/08 13:12:31;;;;;;;1621.70;999.90;;;;;;;;;;4944910;28;19914;-57
2022/04/08 13:14:56;;;;;;;1607.43;999.90;;;;;;;;;;4943890;28;19919;-58
2022/04/08 13:17:21;;;;;;;1605.18;999.90;;;;;;;;;;4944425;29;20098;-57
2022/04/08 13:19:47;;;;;;;1615.63;999.90;;;;;;;;;;4944689;28;19911;-56
2022/04/08 13:22:12;;;;;;;;;;;;;;;;;;4944449;28;20470;-56
2022/04/08 13:24:37;;;;;;;1611.40;999.90;;;;;;;;;;4943809;28;20103;-57
2022/04/08 13:27:03;;;;;;;1615.30;999.90;;;;;;;;;;4944552;28;20283;-57
2022/04/08 13:29:29;;;;;;;1616.03;999.90;;;;;;;;;;4944314;28;19989;-57
2022/04/08 13:31:54;;;;;;;1609.70;999.90;;;;;;;;;;4943044;28;20023;-55
2022/04/08 13:34:20;;;;;;;1607.03;999.90;;;;;;;;;;4944222;28;20081;-54
2022/04/08 13:36:45;;;;;;;1618.68;999.90;;;;;;;;;;4944357;28;20326;-56
2022/04/08 13:39:10;;;;;;;1621.83;999.90;;;;;;;;;;4944964;28;20046;-56
2022/04/08 13:41:36;;;;;;;1622.60;999.90;;;;;;;;;;4946220;28;19910;-57
2022/04/08 13:44:01;;;;;;;1617.53;999.90;;;;;;;;;;4947324;28;20350;-54
2022/04/08 13:46:26;;;;;;;1626.50;999.90;;;;;;;;;;4948198;28;20307;-55
2022/04/08 13:48:54;;;;;;;1622.00;999.90;;;;;;;;;;4948421;28;19958;-56
2022/04/08 13:51:19;;;;;;;1615.60;999.90;;;;;;;;;;4948434;28;20103;-55